sensor_id;sensor_type;location;lat;lon;timestamp;temperature;humidity
67186;HTU21D;54116;53.518;49.398;2023-04-03T00:02:15;0.40;118.99
67186;HTU21D;54116;53.518;49.398;2023-04-03T00:04:41;0.08;118.99
67186;HTU21D;54116;53.518;49.398;2023-04-03T00:07:07;0.33;118.99
67186;HTU21D;54116;53.518;49.398;2023-04-03T00:09:34;0.34;118.99
67186;HTU21D;54116;53.518;49.398;2023-04-03T00:12:00;0.94;118.99
67186;HTU21D;54116;53.518;49.398;2023-04-03T00:14:26;0.17;118.99
67186;HTU21D;54116;53.518;49.398;2023-04-03T00:16:53;0.49;118.99
67186;HTU21D;54116;53.518;49.398;2023-04-03T00:19:19;0.28;118.99
67186;HTU21D;54116;53.518;49.398;2023-04-03T00:21:45;-0.26;118.99
67186;HTU21D;54116;53.518;49.398;2023-04-03T00:24:12;0.12;118.99
67186;HTU21D;54116;53.518;49.398;2023-04-03T00:26:38;0.06;118.99
67186;HTU21D;54116;53.518;49.398;2023-04-03T00:29:05;-0.29;118.99
67186;HTU21D;54116;53.518;49.398;2023-04-03T00:31:31;-0.22;118.99
67186;HTU21D;54116;53.518;49.398;2023-04-03T00:33:58;-0.24;118.99
67186;HTU21D;54116;53.518;49.398;2023-04-03T00:36:24;-0.71;118.99
67186;HTU21D;54116;53.518;49.398;2023-04-03T00:38:51;-0.39;118.99
67186;HTU21D;54116;53.518;49.398;2023-04-03T00:41:17;-0.17;118.99
67186;HTU21D;54116;53.518;49.398;2023-04-03T00:43:43;-0.39;118.99
67186;HTU21D;54116;53.518;49.398;2023-04-03T00:46:09;-0.08;118.99
67186;HTU21D;54116;53.518;49.398;2023-04-03T00:48:41;-0.23;118.99
67186;HTU21D;54116;53.518;49.398;2023-04-03T00:51:12;-0.10;118.99
67186;HTU21D;54116;53.518;49.398;2023-04-03T00:53:46;-0.05;118.99
67186;HTU21D;54116;53.518;49.398;2023-04-03T00:56:15;-0.86;118.99
67186;HTU21D;54116;53.518;49.398;2023-04-03T00:58:51;-1.65;118.99
67186;HTU21D;54116;53.518;49.398;2023-04-03T01:01:22;-0.81;118.99
67186;HTU21D;54116;53.518;49.398;2023-04-03T01:03:49;-0.62;118.99
67186;HTU21D;54116;53.518;49.398;2023-04-03T01:06:17;-0.52;118.99
67186;HTU21D;54116;53.518;49.398;2023-04-03T01:08:45;-1.13;118.99
67186;HTU21D;54116;53.518;49.398;2023-04-03T01:11:13;-0.23;118.99
67186;HTU21D;54116;53.518;49.398;2023-04-03T01:13:39;-0.53;118.99
67186;HTU21D;54116;53.518;49.398;2023-04-03T01:16:07;-0.29;118.99
67186;HTU21D;54116;53.518;49.398;2023-04-03T01:18:37;-0.42;118.99
67186;HTU21D;54116;53.518;49.398;2023-04-03T01:24:31;-0.79;118.99
67186;HTU21D;54116;53.518;49.398;2023-04-03T01:27:01;-1.29;118.99
67186;HTU21D;54116;53.518;49.398;2023-04-03T01:29:28;-0.52;118.99
67186;HTU21D;54116;53.518;49.398;2023-04-03T01:31:59;-1.29;118.99
67186;HTU21D;54116;53.518;49.398;2023-04-03T01:34:27;-1.92;118.99
67186;HTU21D;54116;53.518;49.398;2023-04-03T01:36:54;-0.62;118.99
67186;HTU21D;54116;53.518;49.398;2023-04-03T01:39:21;-1.34;118.99
67186;HTU21D;54116;53.518;49.398;2023-04-03T01:41:48;-1.10;118.99
67186;HTU21D;54116;53.518;49.398;2023-04-03T01:44:15;-1.95;118.99
67186;HTU21D;54116;53.518;49.398;2023-04-03T01:46:41;-4.14;118.99
67186;HTU21D;54116;53.518;49.398;2023-04-03T01:49:08;-1.67;118.99
67186;HTU21D;54116;53.518;49.398;2023-04-03T01:51:34;-1.87;118.99
67186;HTU21D;54116;53.518;49.398;2023-04-03T01:54:01;-2.37;118.99
67186;HTU21D;54116;53.518;49.398;2023-04-03T01:56:27;-3.39;118.99
67186;HTU21D;54116;53.518;49.398;2023-04-03T01:58:53;-0.55;118.99
67186;HTU21D;54116;53.518;49.398;2023-04-03T02:01:19;-0.59;118.99
67186;HTU21D;54116;53.518;49.398;2023-04-03T02:03:45;-0.32;118.99
67186;HTU21D;54116;53.518;49.398;2023-04-03T02:06:11;0.13;118.99
67186;HTU21D;54116;53.518;49.398;2023-04-03T02:08:37;0.46;118.99
67186;HTU21D;54116;53.518;49.398;2023-04-03T02:11:03;-4.31;118.99
67186;HTU21D;54116;53.518;49.398;2023-04-03T02:13:29;1.56;118.99
67186;HTU21D;54116;53.518;49.398;2023-04-03T02:15:55;1.45;118.99
67186;HTU21D;54116;53.518;49.398;2023-04-03T02:18:21;1.28;118.99
67186;HTU21D;54116;53.518;49.398;2023-04-03T02:20:47;0.93;118.99
67186;HTU21D;54116;53.518;49.398;2023-04-03T02:23:13;1.21;118.99
67186;HTU21D;54116;53.518;49.398;2023-04-03T02:25:40;0.95;118.99
67186;HTU21D;54116;53.518;49.398;2023-04-03T02:28:06;1.13;118.99
67186;HTU21D;54116;53.518;49.398;2023-04-03T02:30:32;1.53;118.99
67186;HTU21D;54116;53.518;49.398;2023-04-03T02:32:58;0.57;118.99
67186;HTU21D;54116;53.518;49.398;2023-04-03T02:35:24;-0.27;118.99
67186;HTU21D;54116;53.518;49.398;2023-04-03T02:37:50;0.81;118.99
67186;HTU21D;54116;53.518;49.398;2023-04-03T02:40:16;0.69;118.99
67186;HTU21D;54116;53.518;49.398;2023-04-03T02:42:42;-2.32;118.99
67186;HTU21D;54116;53.518;49.398;2023-04-03T02:45:09;-1.06;118.99
67186;HTU21D;54116;53.518;49.398;2023-04-03T02:47:35;-2.60;118.99
67186;HTU21D;54116;53.518;49.398;2023-04-03T02:50:01;-4.45;118.99
67186;HTU21D;54116;53.518;49.398;2023-04-03T02:52:27;0.18;118.99
67186;HTU21D;54116;53.518;49.398;2023-04-03T02:54:53;-1.09;118.99
67186;HTU21D;54116;53.518;49.398;2023-04-03T02:57:20;2.90;118.99
67186;HTU21D;54116;53.518;49.398;2023-04-03T02:59:46;3.48;118.99
67186;HTU21D;54116;53.518;49.398;2023-04-03T03:02:12;0.34;118.99
67186;HTU21D;54116;53.518;49.398;2023-04-03T03:04:38;1.63;118.99
67186;HTU21D;54116;53.518;49.398;2023-04-03T03:07:04;2.68;118.99
67186;HTU21D;54116;53.518;49.398;2023-04-03T03:09:29;4.00;118.99
67186;HTU21D;54116;53.518;49.398;2023-04-03T03:11:57;2.95;118.99
67186;HTU21D;54116;53.518;49.398;2023-04-03T03:14:23;3.70;118.99
67186;HTU21D;54116;53.518;49.398;2023-04-03T03:16:49;2.42;118.99
67186;HTU21D;54116;53.518;49.398;2023-04-03T03:19:15;4.23;118.99
67186;HTU21D;54116;53.518;49.398;2023-04-03T03:21:42;3.59;118.99
67186;HTU21D;54116;53.518;49.398;2023-04-03T03:24:08;3.35;118.99
67186;HTU21D;54116;53.518;49.398;2023-04-03T03:26:34;3.65;118.99
67186;HTU21D;54116;53.518;49.398;2023-04-03T03:29:00;5.22;118.99
67186;HTU21D;54116;53.518;49.398;2023-04-03T03:31:26;-1.71;118.99
67186;HTU21D;54116;53.518;49.398;2023-04-03T03:33:52;5.78;118.99
67186;HTU21D;54116;53.518;49.398;2023-04-03T03:36:18;4.68;118.99
67186;HTU21D;54116;53.518;49.398;2023-04-03T03:38:44;4.46;118.99
67186;HTU21D;54116;53.518;49.398;2023-04-03T03:41:10;4.34;118.99
67186;HTU21D;54116;53.518;49.398;2023-04-03T03:43:36;3.36;118.99
67186;HTU21D;54116;53.518;49.398;2023-04-03T03:46:02;4.44;118.99
67186;HTU21D;54116;53.518;49.398;2023-04-03T03:48:28;3.65;118.99
67186;HTU21D;54116;53.518;49.398;2023-04-03T03:50:55;4.89;118.99
67186;HTU21D;54116;53.518;49.398;2023-04-03T03:53:22;3.84;118.99
67186;HTU21D;54116;53.518;49.398;2023-04-03T03:55:48;3.50;118.99
67186;HTU21D;54116;53.518;49.398;2023-04-03T03:58:14;4.46;118.99
67186;HTU21D;54116;53.518;49.398;2023-04-03T04:00:40;5.09;118.99
67186;HTU21D;54116;53.518;49.398;2023-04-03T04:03:06;6.10;118.99
67186;HTU21D;54116;53.518;49.398;2023-04-03T04:05:32;4.46;118.99
67186;HTU21D;54116;53.518;49.398;2023-04-03T04:07:59;2.38;118.99
67186;HTU21D;54116;53.518;49.398;2023-04-03T04:10:25;-0.10;118.99
67186;HTU21D;54116;53.518;49.398;2023-04-03T04:12:51;-2.90;118.99
67186;HTU21D;54116;53.518;49.398;2023-04-03T04:15:17;-0.72;118.99
67186;HTU21D;54116;53.518;49.398;2023-04-03T04:17:43;-1.21;118.99
67186;HTU21D;54116;53.518;49.398;2023-04-03T04:20:10;-0.94;118.99
67186;HTU21D;54116;53.518;49.398;2023-04-03T04:22:36;-1.57;118.99
67186;HTU21D;54116;53.518;49.398;2023-04-03T04:25:03;-1.34;118.99
67186;HTU21D;54116;53.518;49.398;2023-04-03T04:27:30;-1.88;118.99
67186;HTU21D;54116;53.518;49.398;2023-04-03T04:29:56;-0.68;118.99
67186;HTU21D;54116;53.518;49.398;2023-04-03T04:32:22;-0.97;118.99
67186;HTU21D;54116;53.518;49.398;2023-04-03T04:34:48;-1.21;118.99
67186;HTU21D;54116;53.518;49.398;2023-04-03T04:37:14;0.02;118.99
67186;HTU21D;54116;53.518;49.398;2023-04-03T04:39:58;0.38;118.99
67186;HTU21D;54116;53.518;49.398;2023-04-03T04:42:24;0.45;118.99
67186;HTU21D;54116;53.518;49.398;2023-04-03T04:44:51;0.52;118.99
67186;HTU21D;54116;53.518;49.398;2023-04-03T04:47:17;1.11;118.99
67186;HTU21D;54116;53.518;49.398;2023-04-03T04:52:28;0.67;118.99
67186;HTU21D;54116;53.518;49.398;2023-04-03T04:54:54;1.37;118.99
67186;HTU21D;54116;53.518;49.398;2023-04-03T04:57:39;-0.50;118.99
67186;HTU21D;54116;53.518;49.398;2023-04-03T05:00:06;-0.54;118.99
67186;HTU21D;54116;53.518;49.398;2023-04-03T05:02:51;0.72;118.99
67186;HTU21D;54116;53.518;49.398;2023-04-03T05:10:48;1.81;118.99
67186;HTU21D;54116;53.518;49.398;2023-04-03T05:13:14;1.92;118.99
67186;HTU21D;54116;53.518;49.398;2023-04-03T05:15:59;2.25;118.99
67186;HTU21D;54116;53.518;49.398;2023-04-03T05:18:25;2.60;118.99
67186;HTU21D;54116;53.518;49.398;2023-04-03T05:20:51;0.97;118.99
67186;HTU21D;54116;53.518;49.398;2023-04-03T05:23:18;1.20;118.99
67186;HTU21D;54116;53.518;49.398;2023-04-03T05:25:45;0.61;118.99
67186;HTU21D;54116;53.518;49.398;2023-04-03T05:28:13;1.72;118.99
67186;HTU21D;54116;53.518;49.398;2023-04-03T05:30:39;1.27;118.99
67186;HTU21D;54116;53.518;49.398;2023-04-03T05:33:05;1.05;118.99
67186;HTU21D;54116;53.518;49.398;2023-04-03T05:35:32;-0.79;118.99
67186;HTU21D;54116;53.518;49.398;2023-04-03T05:37:58;0.30;118.99
67186;HTU21D;54116;53.518;49.398;2023-04-03T05:40:24;0.75;118.99
67186;HTU21D;54116;53.518;49.398;2023-04-03T05:42:51;0.23;118.99
67186;HTU21D;54116;53.518;49.398;2023-04-03T05:45:19;2.70;118.99
67186;HTU21D;54116;53.518;49.398;2023-04-03T05:47:46;2.87;118.99
67186;HTU21D;54116;53.518;49.398;2023-04-03T05:50:31;3.53;118.99
67186;HTU21D;54116;53.518;49.398;2023-04-03T05:52:58;4.84;118.99
67186;HTU21D;54116;53.518;49.398;2023-04-03T05:55:25;4.34;118.99
67186;HTU21D;54116;53.518;49.398;2023-04-03T05:57:53;3.76;118.99
67186;HTU21D;54116;53.518;49.398;2023-04-03T06:03:23;2.67;118.99
67186;HTU21D;54116;53.518;49.398;2023-04-03T06:05:49;1.78;118.99
67186;HTU21D;54116;53.518;49.398;2023-04-03T06:08:16;2.90;118.99
67186;HTU21D;54116;53.518;49.398;2023-04-03T06:10:42;1.91;118.99
67186;HTU21D;54116;53.518;49.398;2023-04-03T06:13:08;1.94;118.99
67186;HTU21D;54116;53.518;49.398;2023-04-03T06:15:35;2.17;118.99
67186;HTU21D;54116;53.518;49.398;2023-04-03T06:18:19;1.63;118.99
67186;HTU21D;54116;53.518;49.398;2023-04-03T06:20:46;1.54;118.99
67186;HTU21D;54116;53.518;49.398;2023-04-03T06:23:12;0.75;118.99
67186;HTU21D;54116;53.518;49.398;2023-04-03T06:25:38;1.80;118.99
67186;HTU21D;54116;53.518;49.398;2023-04-03T06:28:05;1.32;118.99
67186;HTU21D;54116;53.518;49.398;2023-04-03T06:30:31;1.09;118.99
67186;HTU21D;54116;53.518;49.398;2023-04-03T06:32:58;1.14;118.99
67186;HTU21D;54116;53.518;49.398;2023-04-03T06:35:25;1.80;118.99
67186;HTU21D;54116;53.518;49.398;2023-04-03T06:37:52;1.70;118.99
67186;HTU21D;54116;53.518;49.398;2023-04-03T06:43:06;-0.09;118.99
67186;HTU21D;54116;53.518;49.398;2023-04-03T06:45:33;-0.23;118.99
67186;HTU21D;54116;53.518;49.398;2023-04-03T06:47:59;-0.56;118.99
67186;HTU21D;54116;53.518;49.398;2023-04-03T06:50:26;-0.93;118.99
67186;HTU21D;54116;53.518;49.398;2023-04-03T06:52:52;-0.56;118.99
67186;HTU21D;54116;53.518;49.398;2023-04-03T06:55:18;-0.22;118.99
67186;HTU21D;54116;53.518;49.398;2023-04-03T06:57:45;0.43;118.99
67186;HTU21D;54116;53.518;49.398;2023-04-03T07:02:56;-0.11;118.99
67186;HTU21D;54116;53.518;49.398;2023-04-03T07:05:24;-1.24;118.99
67186;HTU21D;54116;53.518;49.398;2023-04-03T07:07:51;0.04;118.99
67186;HTU21D;54116;53.518;49.398;2023-04-03T07:10:17;-2.34;118.99
67186;HTU21D;54116;53.518;49.398;2023-04-03T07:13:02;-1.80;118.99
67186;HTU21D;54116;53.518;49.398;2023-04-03T07:15:29;-0.86;118.99
67186;HTU21D;54116;53.518;49.398;2023-04-03T07:17:56;-1.11;118.99
67186;HTU21D;54116;53.518;49.398;2023-04-03T07:20:23;-1.72;118.99
67186;HTU21D;54116;53.518;49.398;2023-04-03T07:22:49;-1.78;118.99
67186;HTU21D;54116;53.518;49.398;2023-04-03T07:25:34;-0.96;118.99
67186;HTU21D;54116;53.518;49.398;2023-04-03T07:28:00;-2.17;118.99
67186;HTU21D;54116;53.518;49.398;2023-04-03T07:30:26;-1.46;118.99
67186;HTU21D;54116;53.518;49.398;2023-04-03T07:32:53;-0.15;118.99
67186;HTU21D;54116;53.518;49.398;2023-04-03T07:35:19;-1.60;118.99
67186;HTU21D;54116;53.518;49.398;2023-04-03T07:37:46;-1.05;118.99
67186;HTU21D;54116;53.518;49.398;2023-04-03T07:40:12;-0.20;118.99
67186;HTU21D;54116;53.518;49.398;2023-04-03T07:42:38;-0.57;118.99
67186;HTU21D;54116;53.518;49.398;2023-04-03T07:45:23;0.46;118.99
67186;HTU21D;54116;53.518;49.398;2023-04-03T07:50:35;-1.03;118.99
67186;HTU21D;54116;53.518;49.398;2023-04-03T07:53:02;-0.52;118.99
67186;HTU21D;54116;53.518;49.398;2023-04-03T07:55:29;0.27;118.99
67186;HTU21D;54116;53.518;49.398;2023-04-03T07:57:55;1.10;118.99
67186;HTU21D;54116;53.518;49.398;2023-04-03T08:00:22;0.47;118.99
67186;HTU21D;54116;53.518;49.398;2023-04-03T08:03:09;-0.05;118.99
67186;HTU21D;54116;53.518;49.398;2023-04-03T08:05:37;0.76;118.99
67186;HTU21D;54116;53.518;49.398;2023-04-03T08:08:04;-0.03;118.99
67186;HTU21D;54116;53.518;49.398;2023-04-03T08:10:32;-0.60;118.99
67186;HTU21D;54116;53.518;49.398;2023-04-03T08:12:58;-0.35;118.99
67186;HTU21D;54116;53.518;49.398;2023-04-03T08:15:25;-0.31;118.99
67186;HTU21D;54116;53.518;49.398;2023-04-03T08:17:51;0.42;118.99
67186;HTU21D;54116;53.518;49.398;2023-04-03T08:20:18;0.39;118.99
67186;HTU21D;54116;53.518;49.398;2023-04-03T08:22:44;0.43;118.99
67186;HTU21D;54116;53.518;49.398;2023-04-03T08:25:11;-0.17;118.99
67186;HTU21D;54116;53.518;49.398;2023-04-03T08:27:37;0.15;118.99
67186;HTU21D;54116;53.518;49.398;2023-04-03T08:30:04;0.75;118.99
67186;HTU21D;54116;53.518;49.398;2023-04-03T08:32:32;0.38;118.99
67186;HTU21D;54116;53.518;49.398;2023-04-03T08:34:59;0.16;118.99
67186;HTU21D;54116;53.518;49.398;2023-04-03T08:37:25;-0.91;118.99
67186;HTU21D;54116;53.518;49.398;2023-04-03T08:39:52;0.24;118.99
67186;HTU21D;54116;53.518;49.398;2023-04-03T08:48:20;0.04;118.99
67186;HTU21D;54116;53.518;49.398;2023-04-03T08:50:50;0.03;118.99
67186;HTU21D;54116;53.518;49.398;2023-04-03T08:53:36;-0.39;118.99
67186;HTU21D;54116;53.518;49.398;2023-04-03T08:58:59;0.15;118.99
67186;HTU21D;54116;53.518;49.398;2023-04-03T09:01:33;-0.43;118.99
67186;HTU21D;54116;53.518;49.398;2023-04-03T09:04:02;-1.80;118.99
67186;HTU21D;54116;53.518;49.398;2023-04-03T09:06:31;-1.29;118.99
67186;HTU21D;54116;53.518;49.398;2023-04-03T09:09:35;-0.88;118.99
67186;HTU21D;54116;53.518;49.398;2023-04-03T09:12:44;-0.44;118.99
67186;HTU21D;54116;53.518;49.398;2023-04-03T09:15:37;-1.27;118.99
67186;HTU21D;54116;53.518;49.398;2023-04-03T09:21:03;-1.08;118.99
67186;HTU21D;54116;53.518;49.398;2023-04-03T09:23:52;-1.12;118.99
67186;HTU21D;54116;53.518;49.398;2023-04-03T09:27:25;-0.37;118.99
67186;HTU21D;54116;53.518;49.398;2023-04-03T09:29:40;-0.55;118.99
67186;HTU21D;54116;53.518;49.398;2023-04-03T09:32:31;-1.10;118.99
67186;HTU21D;54116;53.518;49.398;2023-04-03T09:35:18;-1.69;118.99
67186;HTU21D;54116;53.518;49.398;2023-04-03T09:37:47;-2.12;118.99
67186;HTU21D;54116;53.518;49.398;2023-04-03T09:42:54;-1.70;118.99
67186;HTU21D;54116;53.518;49.398;2023-04-03T09:45:30;-1.87;118.99
67186;HTU21D;54116;53.518;49.398;2023-04-03T09:48:12;-2.57;118.99
67186;HTU21D;54116;53.518;49.398;2023-04-03T09:53:42;-2.24;118.99
67186;HTU21D;54116;53.518;49.398;2023-04-03T09:58:46;-2.16;118.99
67186;HTU21D;54116;53.518;49.398;2023-04-03T10:09:39;-1.86;118.99
67186;HTU21D;54116;53.518;49.398;2023-04-03T10:12:10;-1.41;118.99
67186;HTU21D;54116;53.518;49.398;2023-04-03T10:14:58;-0.86;118.99
67186;HTU21D;54116;53.518;49.398;2023-04-03T10:20:35;-0.86;118.99
67186;HTU21D;54116;53.518;49.398;2023-04-03T10:23:21;-1.04;118.99
67186;HTU21D;54116;53.518;49.398;2023-04-03T10:26:05;-0.54;118.99
67186;HTU21D;54116;53.518;49.398;2023-04-03T10:37:27;-1.89;118.99
67186;HTU21D;54116;53.518;49.398;2023-04-03T10:43:07;-1.91;118.99
67186;HTU21D;54116;53.518;49.398;2023-04-03T10:46:02;-1.60;118.99
67186;HTU21D;54116;53.518;49.398;2023-04-03T10:54:26;-2.07;118.99
67186;HTU21D;54116;53.518;49.398;2023-04-03T10:57:00;-2.04;118.99
67186;HTU21D;54116;53.518;49.398;2023-04-03T11:02:28;-1.46;118.99
67186;HTU21D;54116;53.518;49.398;2023-04-03T11:07:48;-1.65;118.99
67186;HTU21D;54116;53.518;49.398;2023-04-03T11:10:40;-2.18;118.99
67186;HTU21D;54116;53.518;49.398;2023-04-03T11:13:33;-1.92;118.99
67186;HTU21D;54116;53.518;49.398;2023-04-03T11:16:00;-2.10;118.99
67186;HTU21D;54116;53.518;49.398;2023-04-03T11:18:42;-0.31;118.99
67186;HTU21D;54116;53.518;49.398;2023-04-03T11:21:20;0.54;118.99
67186;HTU21D;54116;53.518;49.398;2023-04-03T11:23:48;0.48;118.99
67186;HTU21D;54116;53.518;49.398;2023-04-03T11:29:13;-0.65;118.99
67186;HTU21D;54116;53.518;49.398;2023-04-03T11:32:29;-0.55;118.99
67186;HTU21D;54116;53.518;49.398;2023-04-03T11:34:51;-1.35;118.99
67186;HTU21D;54116;53.518;49.398;2023-04-03T11:37:33;0.16;118.99
67186;HTU21D;54116;53.518;49.398;2023-04-03T11:42:48;-0.84;118.99
67186;HTU21D;54116;53.518;49.398;2023-04-03T11:47:55;-0.21;118.99
67186;HTU21D;54116;53.518;49.398;2023-04-03T11:53:01;-0.28;118.99
67186;HTU21D;54116;53.518;49.398;2023-04-03T12:19:29;0.08;118.99
67186;HTU21D;54116;53.518;49.398;2023-04-03T12:24:29;-1.26;118.99
67186;HTU21D;54116;53.518;49.398;2023-04-03T12:27:09;-1.69;118.99
67186;HTU21D;54116;53.518;49.398;2023-04-03T12:30:34;-1.29;118.99
67186;HTU21D;54116;53.518;49.398;2023-04-03T12:36:13;-0.98;118.99
67186;HTU21D;54116;53.518;49.398;2023-04-03T12:38:51;-1.39;118.99
67186;HTU21D;54116;53.518;49.398;2023-04-03T12:46:37;-0.99;118.99
67186;HTU21D;54116;53.518;49.398;2023-04-03T12:49:20;-0.52;118.99
67186;HTU21D;54116;53.518;49.398;2023-04-03T12:51:50;0.14;118.99
67186;HTU21D;54116;53.518;49.398;2023-04-03T12:54:22;-0.23;118.99
67186;HTU21D;54116;53.518;49.398;2023-04-03T12:57:21;-0.72;118.99
67186;HTU21D;54116;53.518;49.398;2023-04-03T13:02:51;-0.00;118.99
67186;HTU21D;54116;53.518;49.398;2023-04-03T13:05:19;-0.05;118.99
67186;HTU21D;54116;53.518;49.398;2023-04-03T13:07:58;-0.50;118.99
67186;HTU21D;54116;53.518;49.398;2023-04-03T13:10:25;-0.69;118.99
67186;HTU21D;54116;53.518;49.398;2023-04-03T13:13:07;-0.24;118.99
67186;HTU21D;54116;53.518;49.398;2023-04-03T13:15:43;-1.28;118.99
67186;HTU21D;54116;53.518;49.398;2023-04-03T13:21:31;-2.15;118.99
67186;HTU21D;54116;53.518;49.398;2023-04-03T13:24:01;-1.78;118.99
67186;HTU21D;54116;53.518;49.398;2023-04-03T13:26:31;-1.53;118.99
67186;HTU21D;54116;53.518;49.398;2023-04-03T13:29:05;-1.69;118.99
67186;HTU21D;54116;53.518;49.398;2023-04-03T13:31:36;-1.78;118.99
67186;HTU21D;54116;53.518;49.398;2023-04-03T13:34:17;-2.04;118.99
67186;HTU21D;54116;53.518;49.398;2023-04-03T13:41:46;-1.49;118.99
67186;HTU21D;54116;53.518;49.398;2023-04-03T13:46:49;-1.55;118.99
67186;HTU21D;54116;53.518;49.398;2023-04-03T13:49:22;-1.16;118.99
67186;HTU21D;54116;53.518;49.398;2023-04-03T13:51:52;-1.61;118.99
67186;HTU21D;54116;53.518;49.398;2023-04-03T13:54:40;-2.12;118.99
67186;HTU21D;54116;53.518;49.398;2023-04-03T13:57:14;-1.46;118.99
67186;HTU21D;54116;53.518;49.398;2023-04-03T13:59:40;-2.42;118.99
67186;HTU21D;54116;53.518;49.398;2023-04-03T14:02:13;-1.79;118.99
67186;HTU21D;54116;53.518;49.398;2023-04-03T14:04:59;-2.19;118.99
67186;HTU21D;54116;53.518;49.398;2023-04-03T14:07:45;-1.24;118.99
67186;HTU21D;54116;53.518;49.398;2023-04-03T14:10:11;-2.33;118.99
67186;HTU21D;54116;53.518;49.398;2023-04-03T14:12:38;-2.93;118.99
67186;HTU21D;54116;53.518;49.398;2023-04-03T14:15:24;-2.82;118.99
67186;HTU21D;54116;53.518;49.398;2023-04-03T14:17:50;-2.67;118.99
67186;HTU21D;54116;53.518;49.398;2023-04-03T14:20:23;-2.69;118.99
67186;HTU21D;54116;53.518;49.398;2023-04-03T14:22:50;-2.80;118.99
67186;HTU21D;54116;53.518;49.398;2023-04-03T14:25:18;-1.52;118.99
67186;HTU21D;54116;53.518;49.398;2023-04-03T14:33:21;-3.40;118.99
67186;HTU21D;54116;53.518;49.398;2023-04-03T14:35:48;-2.72;118.99
67186;HTU21D;54116;53.518;49.398;2023-04-03T14:38:24;-2.43;118.99
67186;HTU21D;54116;53.518;49.398;2023-04-03T14:40:52;-2.69;118.99
67186;HTU21D;54116;53.518;49.398;2023-04-03T14:43:19;-2.07;118.99
67186;HTU21D;54116;53.518;49.398;2023-04-03T14:46:04;-2.73;118.99
67186;HTU21D;54116;53.518;49.398;2023-04-03T14:48:31;-2.84;118.99
67186;HTU21D;54116;53.518;49.398;2023-04-03T14:50:57;-3.09;118.99
67186;HTU21D;54116;53.518;49.398;2023-04-03T14:53:23;-3.35;118.99
67186;HTU21D;54116;53.518;49.398;2023-04-03T14:56:23;-2.93;118.99
67186;HTU21D;54116;53.518;49.398;2023-04-03T14:58:56;-3.40;118.99
67186;HTU21D;54116;53.518;49.398;2023-04-03T15:01:23;-3.28;118.99
67186;HTU21D;54116;53.518;49.398;2023-04-03T15:06:35;-3.43;118.99
67186;HTU21D;54116;53.518;49.398;2023-04-03T15:09:02;-3.58;118.99
67186;HTU21D;54116;53.518;49.398;2023-04-03T15:11:29;-4.12;118.99
67186;HTU21D;54116;53.518;49.398;2023-04-03T15:13:55;-3.55;118.99
67186;HTU21D;54116;53.518;49.398;2023-04-03T15:16:29;-4.22;118.99
67186;HTU21D;54116;53.518;49.398;2023-04-03T15:18:55;-3.68;118.99
67186;HTU21D;54116;53.518;49.398;2023-04-03T15:21:22;-3.95;118.99
67186;HTU21D;54116;53.518;49.398;2023-04-03T15:23:48;-4.30;118.99
67186;HTU21D;54116;53.518;49.398;2023-04-03T15:26:14;-4.73;118.99
67186;HTU21D;54116;53.518;49.398;2023-04-03T15:28:59;-4.15;118.99
67186;HTU21D;54116;53.518;49.398;2023-04-03T15:31:25;-3.37;118.99
67186;HTU21D;54116;53.518;49.398;2023-04-03T15:33:52;-4.24;118.99
67186;HTU21D;54116;53.518;49.398;2023-04-03T15:36:18;-5.20;118.99
67186;HTU21D;54116;53.518;49.398;2023-04-03T15:38:44;-5.29;118.99
67186;HTU21D;54116;53.518;49.398;2023-04-03T15:41:11;-4.52;118.99
67186;HTU21D;54116;53.518;49.398;2023-04-03T15:43:37;-5.25;118.99
67186;HTU21D;54116;53.518;49.398;2023-04-03T15:49:26;-6.26;118.99
67186;HTU21D;54116;53.518;49.398;2023-04-03T15:51:53;-6.49;118.99
67186;HTU21D;54116;53.518;49.398;2023-04-03T15:54:19;-5.84;118.99
67186;HTU21D;54116;53.518;49.398;2023-04-03T15:57:05;-5.64;118.99
67186;HTU21D;54116;53.518;49.398;2023-04-03T16:02:16;-5.28;118.99
67186;HTU21D;54116;53.518;49.398;2023-04-03T16:04:42;-5.91;118.99
67186;HTU21D;54116;53.518;49.398;2023-04-03T16:07:08;-4.99;118.99
67186;HTU21D;54116;53.518;49.398;2023-04-03T16:09:36;-6.34;118.99
67186;HTU21D;54116;53.518;49.398;2023-04-03T16:12:03;-5.63;118.99
67186;HTU21D;54116;53.518;49.398;2023-04-03T16:17:14;-6.30;118.99
67186;HTU21D;54116;53.518;49.398;2023-04-03T16:19:41;-6.13;118.99
67186;HTU21D;54116;53.518;49.398;2023-04-03T16:22:26;-6.90;118.99
67186;HTU21D;54116;53.518;49.398;2023-04-03T16:24:53;-7.06;118.99
67186;HTU21D;54116;53.518;49.398;2023-04-03T16:27:39;-6.46;118.99
67186;HTU21D;54116;53.518;49.398;2023-04-03T16:30:06;-7.29;118.99
67186;HTU21D;54116;53.518;49.398;2023-04-03T16:32:33;-6.88;118.99
67186;HTU21D;54116;53.518;49.398;2023-04-03T16:34:59;-7.46;118.99
67186;HTU21D;54116;53.518;49.398;2023-04-03T16:37:26;-7.56;118.99
67186;HTU21D;54116;53.518;49.398;2023-04-03T16:39:53;-7.67;118.99
67186;HTU21D;54116;53.518;49.398;2023-04-03T16:42:19;-7.71;118.99
67186;HTU21D;54116;53.518;49.398;2023-04-03T16:44:45;-7.78;118.99
67186;HTU21D;54116;53.518;49.398;2023-04-03T16:47:12;-7.89;118.99
67186;HTU21D;54116;53.518;49.398;2023-04-03T16:49:40;-7.67;118.99
67186;HTU21D;54116;53.518;49.398;2023-04-03T16:52:06;-7.80;118.99
67186;HTU21D;54116;53.518;49.398;2023-04-03T16:54:32;-7.79;118.99
67186;HTU21D;54116;53.518;49.398;2023-04-03T16:56:58;-7.90;118.99
67186;HTU21D;54116;53.518;49.398;2023-04-03T16:59:25;-7.96;118.99
67186;HTU21D;54116;53.518;49.398;2023-04-03T17:01:51;-7.86;118.99
67186;HTU21D;54116;53.518;49.398;2023-04-03T17:07:39;-8.10;118.99
67186;HTU21D;54116;53.518;49.398;2023-04-03T17:10:42;-8.22;118.99
67186;HTU21D;54116;53.518;49.398;2023-04-03T17:13:08;-7.63;118.99
67186;HTU21D;54116;53.518;49.398;2023-04-03T17:15:34;-8.04;118.99
67186;HTU21D;54116;53.518;49.398;2023-04-03T17:18:01;-7.72;118.99
67186;HTU21D;54116;53.518;49.398;2023-04-03T17:20:45;-7.67;118.99
67186;HTU21D;54116;53.518;49.398;2023-04-03T17:25:57;-8.00;118.99
67186;HTU21D;54116;53.518;49.398;2023-04-03T17:28:23;-8.12;118.99
67186;HTU21D;54116;53.518;49.398;2023-04-03T17:33:44;-5.72;118.99
67186;HTU21D;54116;53.518;49.398;2023-04-03T17:36:32;-5.35;118.99
67186;HTU21D;54116;53.518;49.398;2023-04-03T17:38:59;-5.69;118.99
67186;HTU21D;54116;53.518;49.398;2023-04-03T17:41:34;-1.59;118.99
67186;HTU21D;54116;53.518;49.398;2023-04-03T17:44:01;2.60;118.99
67186;HTU21D;54116;53.518;49.398;2023-04-03T17:46:45;3.99;118.99
67186;HTU21D;54116;53.518;49.398;2023-04-03T17:52:17;4.04;118.99
67186;HTU21D;54116;53.518;49.398;2023-04-03T17:54:43;5.09;118.99
67186;HTU21D;54116;53.518;49.398;2023-04-03T17:57:27;5.13;118.99
67186;HTU21D;54116;53.518;49.398;2023-04-03T18:00:12;4.84;118.99